Terminal Aerodrome Forecast
Issued by NWS Jackson, MS

Home | Current Version | Previous Version | Text Only | Print | Product List | Glossary On
Versions: 1 2 3 4 5 6 7 8 9 10 11 12 13 14 15 16 17 18 19 20 21
000
FTUS44 KMEG 162325
TAFTUP
TAF
KTUP 162325Z 1700/1724 13005KT P6SM VCSH BKN050 OVC070
     FM170900 21008KT P6SM VCTS OVC045CB
      TEMPO 1709/1713 2SM TSRA BR OVC008CB
     FM171800 24008KT P6SM VCSH OVC015=

USA.gov is the U.S. government's official web portal to all federal, state and local government web resources and services.